sensor_id;sensor_type;location;lat;lon;timestamp;pressure;altitude;pressure_sealevel;temperature;humidity
54592;BME280;40488;48.558;18.150;2023-03-18T00:00:08;99962.50;;;1.94;61.45
54592;BME280;40488;48.558;18.150;2023-03-18T00:02:38;99961.53;;;1.91;61.54
54592;BME280;40488;48.558;18.150;2023-03-18T00:05:09;99956.50;;;1.91;61.86
54592;BME280;40488;48.558;18.150;2023-03-18T00:07:40;99962.81;;;1.80;61.50
54592;BME280;40488;48.558;18.150;2023-03-18T00:10:09;99957.53;;;1.74;62.09
54592;BME280;40488;48.558;18.150;2023-03-18T00:12:39;99951.53;;;1.70;62.74
54592;BME280;40488;48.558;18.150;2023-03-18T00:15:09;99953.19;;;1.70;62.20
54592;BME280;40488;48.558;18.150;2023-03-18T00:17:38;99953.84;;;1.66;62.44
54592;BME280;40488;48.558;18.150;2023-03-18T00:20:07;99950.31;;;1.61;62.71
54592;BME280;40488;48.558;18.150;2023-03-18T00:22:40;99954.34;;;1.57;62.97
54592;BME280;40488;48.558;18.150;2023-03-18T00:25:10;99943.44;;;1.57;63.01
54592;BME280;40488;48.558;18.150;2023-03-18T00:27:39;99945.16;;;1.58;63.33
54592;BME280;40488;48.558;18.150;2023-03-18T00:30:08;99954.97;;;1.52;62.54
54592;BME280;40488;48.558;18.150;2023-03-18T00:32:38;99959.91;;;1.49;62.87
54592;BME280;40488;48.558;18.150;2023-03-18T00:35:07;99947.88;;;1.42;63.82
54592;BME280;40488;48.558;18.150;2023-03-18T00:37:36;99944.41;;;1.40;63.94
54592;BME280;40488;48.558;18.150;2023-03-18T00:40:09;99949.59;;;1.43;63.62
54592;BME280;40488;48.558;18.150;2023-03-18T00:42:43;99936.44;;;1.50;63.60
54592;BME280;40488;48.558;18.150;2023-03-18T00:45:18;99947.25;;;1.47;63.93
54592;BME280;40488;48.558;18.150;2023-03-18T00:47:46;99937.81;;;1.42;64.09
54592;BME280;40488;48.558;18.150;2023-03-18T00:50:16;99935.31;;;1.42;64.07
54592;BME280;40488;48.558;18.150;2023-03-18T00:52:45;99935.06;;;1.35;64.29
54592;BME280;40488;48.558;18.150;2023-03-18T00:55:15;99934.06;;;1.32;63.60
54592;BME280;40488;48.558;18.150;2023-03-18T00:57:44;99933.53;;;1.39;63.77
54592;BME280;40488;48.558;18.150;2023-03-18T01:00:13;99930.94;;;1.38;63.76
54592;BME280;40488;48.558;18.150;2023-03-18T01:02:42;99932.41;;;1.32;63.40
54592;BME280;40488;48.558;18.150;2023-03-18T01:05:11;99922.59;;;1.39;64.04
54592;BME280;40488;48.558;18.150;2023-03-18T01:07:40;99921.00;;;1.41;63.75
54592;BME280;40488;48.558;18.150;2023-03-18T01:10:10;99922.75;;;1.42;63.53
54592;BME280;40488;48.558;18.150;2023-03-18T01:12:41;99924.44;;;1.43;63.95
54592;BME280;40488;48.558;18.150;2023-03-18T01:15:11;99919.41;;;1.43;63.63
54592;BME280;40488;48.558;18.150;2023-03-18T01:17:40;99924.56;;;1.46;63.56
54592;BME280;40488;48.558;18.150;2023-03-18T01:20:09;99921.31;;;1.48;63.46
54592;BME280;40488;48.558;18.150;2023-03-18T01:22:39;99918.72;;;1.47;63.31
54592;BME280;40488;48.558;18.150;2023-03-18T01:25:09;99914.50;;;1.46;63.30
54592;BME280;40488;48.558;18.150;2023-03-18T01:27:39;99911.06;;;1.44;63.58
54592;BME280;40488;48.558;18.150;2023-03-18T01:30:09;99918.44;;;1.39;63.29
54592;BME280;40488;48.558;18.150;2023-03-18T01:32:41;99917.31;;;1.32;63.78
54592;BME280;40488;48.558;18.150;2023-03-18T01:35:10;99916.41;;;1.30;63.67
54592;BME280;40488;48.558;18.150;2023-03-18T01:37:44;99908.25;;;1.36;63.74
54592;BME280;40488;48.558;18.150;2023-03-18T01:40:13;99914.38;;;1.43;63.01
54592;BME280;40488;48.558;18.150;2023-03-18T01:42:46;99903.41;;;1.41;63.71
54592;BME280;40488;48.558;18.150;2023-03-18T01:45:19;99906.72;;;1.40;63.51
54592;BME280;40488;48.558;18.150;2023-03-18T01:47:51;99904.88;;;1.35;63.35
54592;BME280;40488;48.558;18.150;2023-03-18T01:50:22;99912.81;;;1.24;63.53
54592;BME280;40488;48.558;18.150;2023-03-18T01:52:53;99908.66;;;1.24;63.87
54592;BME280;40488;48.558;18.150;2023-03-18T01:55:24;99910.22;;;1.22;64.27
54592;BME280;40488;48.558;18.150;2023-03-18T01:57:54;99911.50;;;1.33;63.79
54592;BME280;40488;48.558;18.150;2023-03-18T02:00:24;99908.31;;;1.38;63.54
54592;BME280;40488;48.558;18.150;2023-03-18T02:02:53;99910.69;;;1.34;63.38
54592;BME280;40488;48.558;18.150;2023-03-18T02:05:22;99900.28;;;1.25;64.12
54592;BME280;40488;48.558;18.150;2023-03-18T02:07:54;99906.91;;;1.23;64.01
54592;BME280;40488;48.558;18.150;2023-03-18T02:10:24;99907.41;;;1.15;63.91
54592;BME280;40488;48.558;18.150;2023-03-18T02:12:56;99896.97;;;1.06;64.71
54592;BME280;40488;48.558;18.150;2023-03-18T02:15:33;99906.97;;;1.04;65.00
54592;BME280;40488;48.558;18.150;2023-03-18T02:18:07;99901.03;;;1.02;64.88
54592;BME280;40488;48.558;18.150;2023-03-18T02:20:41;99905.25;;;1.03;64.95
54592;BME280;40488;48.558;18.150;2023-03-18T02:23:33;99910.41;;;1.06;64.77
54592;BME280;40488;48.558;18.150;2023-03-18T02:26:07;99902.88;;;1.06;65.04
54592;BME280;40488;48.558;18.150;2023-03-18T02:28:39;99913.06;;;1.09;65.05
54592;BME280;40488;48.558;18.150;2023-03-18T02:31:10;99902.72;;;1.03;64.82
54592;BME280;40488;48.558;18.150;2023-03-18T02:33:40;99909.25;;;0.98;65.00
54592;BME280;40488;48.558;18.150;2023-03-18T02:36:11;99902.63;;;1.00;65.62
54592;BME280;40488;48.558;18.150;2023-03-18T02:38:42;99907.41;;;0.94;65.37
54592;BME280;40488;48.558;18.150;2023-03-18T02:41:19;99907.47;;;0.96;65.72
54592;BME280;40488;48.558;18.150;2023-03-18T02:43:50;99898.16;;;0.93;65.65
54592;BME280;40488;48.558;18.150;2023-03-18T02:46:21;99900.41;;;0.87;65.42
54592;BME280;40488;48.558;18.150;2023-03-18T02:48:55;99894.69;;;0.91;66.09
54592;BME280;40488;48.558;18.150;2023-03-18T02:51:25;99899.22;;;0.98;65.59
54592;BME280;40488;48.558;18.150;2023-03-18T02:53:56;99897.22;;;0.91;65.84
54592;BME280;40488;48.558;18.150;2023-03-18T02:56:27;99900.50;;;0.89;65.47
54592;BME280;40488;48.558;18.150;2023-03-18T02:58:57;99901.88;;;0.82;65.62
54592;BME280;40488;48.558;18.150;2023-03-18T03:01:26;99897.84;;;0.86;66.00
54592;BME280;40488;48.558;18.150;2023-03-18T03:03:54;99898.72;;;0.86;65.78
54592;BME280;40488;48.558;18.150;2023-03-18T03:06:23;99898.81;;;0.89;65.57
54592;BME280;40488;48.558;18.150;2023-03-18T03:08:52;99905.56;;;0.90;65.50
54592;BME280;40488;48.558;18.150;2023-03-18T03:11:22;99903.84;;;0.89;65.54
54592;BME280;40488;48.558;18.150;2023-03-18T03:13:55;99907.41;;;0.94;66.03
54592;BME280;40488;48.558;18.150;2023-03-18T03:16:25;99902.00;;;0.85;65.44
54592;BME280;40488;48.558;18.150;2023-03-18T03:18:56;99902.78;;;0.84;65.82
54592;BME280;40488;48.558;18.150;2023-03-18T03:21:25;99905.19;;;0.81;65.91
54592;BME280;40488;48.558;18.150;2023-03-18T03:23:53;99901.94;;;0.84;65.83
54592;BME280;40488;48.558;18.150;2023-03-18T03:26:22;99905.84;;;0.77;65.80
54592;BME280;40488;48.558;18.150;2023-03-18T03:28:51;99901.75;;;0.79;66.04
54592;BME280;40488;48.558;18.150;2023-03-18T03:31:20;99908.34;;;0.77;66.15
54592;BME280;40488;48.558;18.150;2023-03-18T03:33:49;99905.19;;;0.81;66.11
54592;BME280;40488;48.558;18.150;2023-03-18T03:36:18;99902.00;;;0.85;66.02
54592;BME280;40488;48.558;18.150;2023-03-18T03:38:47;99901.28;;;0.88;65.75
54592;BME280;40488;48.558;18.150;2023-03-18T03:41:18;99904.50;;;0.85;66.12
54592;BME280;40488;48.558;18.150;2023-03-18T03:43:48;99904.66;;;0.88;65.72
54592;BME280;40488;48.558;18.150;2023-03-18T03:46:16;99907.63;;;0.80;65.78
54592;BME280;40488;48.558;18.150;2023-03-18T03:48:45;99908.63;;;0.83;66.27
54592;BME280;40488;48.558;18.150;2023-03-18T03:51:16;99915.34;;;0.84;65.93
54592;BME280;40488;48.558;18.150;2023-03-18T03:53:45;99915.34;;;0.84;65.91
54592;BME280;40488;48.558;18.150;2023-03-18T03:56:14;99909.34;;;0.81;66.39
54592;BME280;40488;48.558;18.150;2023-03-18T03:58:43;99921.44;;;0.70;66.46
54592;BME280;40488;48.558;18.150;2023-03-18T04:01:13;99926.47;;;0.70;66.74
54592;BME280;40488;48.558;18.150;2023-03-18T04:03:43;99918.16;;;0.71;66.86
54592;BME280;40488;48.558;18.150;2023-03-18T04:06:12;99921.59;;;0.73;66.70
54592;BME280;40488;48.558;18.150;2023-03-18T04:08:50;99920.63;;;0.70;66.58
54592;BME280;40488;48.558;18.150;2023-03-18T04:11:19;99919.06;;;0.73;66.38
54592;BME280;40488;48.558;18.150;2023-03-18T04:13:48;99922.81;;;0.83;66.48
54592;BME280;40488;48.558;18.150;2023-03-18T04:16:16;99925.53;;;0.87;66.11
54592;BME280;40488;48.558;18.150;2023-03-18T04:18:46;99917.03;;;0.84;66.24
54592;BME280;40488;48.558;18.150;2023-03-18T04:21:19;99923.94;;;0.89;66.13
54592;BME280;40488;48.558;18.150;2023-03-18T04:23:53;99924.66;;;0.87;66.20
54592;BME280;40488;48.558;18.150;2023-03-18T04:26:22;99922.81;;;0.83;66.38
54592;BME280;40488;48.558;18.150;2023-03-18T04:28:53;99918.47;;;0.79;65.75
54592;BME280;40488;48.558;18.150;2023-03-18T04:31:22;99917.56;;;0.77;66.18
54592;BME280;40488;48.558;18.150;2023-03-18T04:33:51;99926.03;;;0.79;65.92
54592;BME280;40488;48.558;18.150;2023-03-18T04:36:19;99926.88;;;0.79;66.46
54592;BME280;40488;48.558;18.150;2023-03-18T04:38:48;99923.44;;;0.77;65.97
54592;BME280;40488;48.558;18.150;2023-03-18T04:41:18;99930.19;;;0.78;66.21
54592;BME280;40488;48.558;18.150;2023-03-18T04:43:48;99928.22;;;0.71;65.98
54592;BME280;40488;48.558;18.150;2023-03-18T04:46:17;99927.94;;;0.65;66.24
54592;BME280;40488;48.558;18.150;2023-03-18T04:48:48;99930.66;;;0.70;66.51
54592;BME280;40488;48.558;18.150;2023-03-18T04:51:16;99938.13;;;0.68;66.48
54592;BME280;40488;48.558;18.150;2023-03-18T04:53:45;99933.09;;;0.68;66.05
54592;BME280;40488;48.558;18.150;2023-03-18T04:56:15;99932.31;;;0.69;65.97
54592;BME280;40488;48.558;18.150;2023-03-18T04:58:50;99938.31;;;0.53;66.25
54592;BME280;40488;48.558;18.150;2023-03-18T05:01:25;99933.19;;;0.50;65.94
54592;BME280;40488;48.558;18.150;2023-03-18T05:03:54;99933.91;;;0.48;66.20
54592;BME280;40488;48.558;18.150;2023-03-18T05:06:29;99933.59;;;0.40;66.35
54592;BME280;40488;48.558;18.150;2023-03-18T05:09:05;99940.50;;;0.46;66.27
54592;BME280;40488;48.558;18.150;2023-03-18T05:11:35;99937.22;;;0.47;66.22
54592;BME280;40488;48.558;18.150;2023-03-18T05:14:14;99942.38;;;0.50;66.63
54592;BME280;40488;48.558;18.150;2023-03-18T05:16:45;99952.41;;;0.50;66.38
54592;BME280;40488;48.558;18.150;2023-03-18T05:19:15;99946.03;;;0.58;66.41
54592;BME280;40488;48.558;18.150;2023-03-18T05:21:56;99942.69;;;0.57;66.28
54592;BME280;40488;48.558;18.150;2023-03-18T05:24:24;99949.50;;;0.60;66.30
54592;BME280;40488;48.558;18.150;2023-03-18T05:26:53;99946.19;;;0.61;66.36
54592;BME280;40488;48.558;18.150;2023-03-18T05:29:31;99950.63;;;0.66;66.57
54592;BME280;40488;48.558;18.150;2023-03-18T05:32:22;99958.06;;;0.65;66.37
54592;BME280;40488;48.558;18.150;2023-03-18T05:34:58;99961.72;;;0.72;66.35
54592;BME280;40488;48.558;18.150;2023-03-18T05:37:28;99960.31;;;0.78;66.61
54592;BME280;40488;48.558;18.150;2023-03-18T05:40:05;99959.09;;;0.89;66.40
54592;BME280;40488;48.558;18.150;2023-03-18T05:42:37;99960.16;;;0.94;66.42
54592;BME280;40488;48.558;18.150;2023-03-18T05:45:29;99963.84;;;1.02;66.43
54592;BME280;40488;48.558;18.150;2023-03-18T05:47:58;99961.84;;;1.14;65.77
54592;BME280;40488;48.558;18.150;2023-03-18T05:50:30;99962.47;;;1.29;66.36
54592;BME280;40488;48.558;18.150;2023-03-18T05:53:03;99967.59;;;1.32;65.78
54592;BME280;40488;48.558;18.150;2023-03-18T05:55:35;99964.94;;;1.49;65.71
54592;BME280;40488;48.558;18.150;2023-03-18T05:58:05;99973.22;;;1.68;65.61
54592;BME280;40488;48.558;18.150;2023-03-18T06:00:38;99974.69;;;1.84;64.53
54592;BME280;40488;48.558;18.150;2023-03-18T06:03:08;99969.56;;;2.03;65.04
54592;BME280;40488;48.558;18.150;2023-03-18T06:05:37;99969.19;;;2.16;63.95
54592;BME280;40488;48.558;18.150;2023-03-18T06:08:06;99972.84;;;2.24;63.73
54592;BME280;40488;48.558;18.150;2023-03-18T06:10:36;99971.56;;;2.35;63.87
54592;BME280;40488;48.558;18.150;2023-03-18T06:13:04;99981.44;;;2.51;63.65
54592;BME280;40488;48.558;18.150;2023-03-18T06:15:33;99980.25;;;2.65;63.61
54592;BME280;40488;48.558;18.150;2023-03-18T06:18:03;99985.16;;;2.86;62.54
54592;BME280;40488;48.558;18.150;2023-03-18T06:20:32;99979.78;;;3.01;62.23
54592;BME280;40488;48.558;18.150;2023-03-18T06:23:01;99988.06;;;3.22;61.97
54592;BME280;40488;48.558;18.150;2023-03-18T06:25:30;99991.31;;;3.43;61.82
54592;BME280;40488;48.558;18.150;2023-03-18T06:27:58;99987.97;;;3.69;61.00
54592;BME280;40488;48.558;18.150;2023-03-18T06:30:29;99991.13;;;3.90;61.25
54592;BME280;40488;48.558;18.150;2023-03-18T06:32:58;99990.06;;;4.11;60.79
54592;BME280;40488;48.558;18.150;2023-03-18T06:35:28;99993.44;;;4.39;60.09
54592;BME280;40488;48.558;18.150;2023-03-18T06:37:58;100000.13;;;4.67;59.73
54592;BME280;40488;48.558;18.150;2023-03-18T06:40:27;99995.00;;;4.95;59.44
54592;BME280;40488;48.558;18.150;2023-03-18T06:42:56;100000.59;;;5.16;59.15
54592;BME280;40488;48.558;18.150;2023-03-18T06:45:35;99999.06;;;5.54;58.16
54592;BME280;40488;48.558;18.150;2023-03-18T06:48:05;100000.34;;;5.73;57.70
54592;BME280;40488;48.558;18.150;2023-03-18T06:50:38;99992.50;;;5.96;56.75
54592;BME280;40488;48.558;18.150;2023-03-18T06:53:13;99989.72;;;6.23;56.28
54592;BME280;40488;48.558;18.150;2023-03-18T06:55:43;99990.22;;;6.47;55.60
54592;BME280;40488;48.558;18.150;2023-03-18T06:58:12;99995.44;;;6.55;54.81
54592;BME280;40488;48.558;18.150;2023-03-18T07:00:54;99996.44;;;6.61;52.17
54592;BME280;40488;48.558;18.150;2023-03-18T07:03:27;100002.63;;;6.75;50.19
54592;BME280;40488;48.558;18.150;2023-03-18T07:05:57;99999.59;;;6.95;48.08
54592;BME280;40488;48.558;18.150;2023-03-18T07:08:25;100004.25;;;7.17;46.54
54592;BME280;40488;48.558;18.150;2023-03-18T07:10:55;100003.78;;;7.39;45.63
54592;BME280;40488;48.558;18.150;2023-03-18T07:13:25;100015.94;;;7.55;44.86
54592;BME280;40488;48.558;18.150;2023-03-18T07:15:55;100009.31;;;7.66;44.05
54592;BME280;40488;48.558;18.150;2023-03-18T07:18:25;100009.53;;;7.78;43.14
54592;BME280;40488;48.558;18.150;2023-03-18T07:20:54;100023.22;;;7.89;42.66
54592;BME280;40488;48.558;18.150;2023-03-18T07:23:24;100013.91;;;7.88;42.36
54592;BME280;40488;48.558;18.150;2023-03-18T07:25:56;100010.69;;;7.98;41.78
54592;BME280;40488;48.558;18.150;2023-03-18T07:28:24;100016.72;;;8.05;42.20
54592;BME280;40488;48.558;18.150;2023-03-18T07:30:53;100011.00;;;8.21;41.98
54592;BME280;40488;48.558;18.150;2023-03-18T07:33:22;100018.00;;;8.34;41.17
54592;BME280;40488;48.558;18.150;2023-03-18T07:35:51;100017.25;;;8.43;40.78
54592;BME280;40488;48.558;18.150;2023-03-18T07:38:19;100012.28;;;8.52;39.83
54592;BME280;40488;48.558;18.150;2023-03-18T07:40:49;100022.66;;;8.67;40.31
54592;BME280;40488;48.558;18.150;2023-03-18T07:43:18;100017.81;;;8.85;40.06
54592;BME280;40488;48.558;18.150;2023-03-18T07:45:46;100016.28;;;9.02;39.22
54592;BME280;40488;48.558;18.150;2023-03-18T07:48:15;100023.28;;;9.20;38.94
54592;BME280;40488;48.558;18.150;2023-03-18T07:50:44;100014.03;;;9.29;38.92
54592;BME280;40488;48.558;18.150;2023-03-18T07:53:12;100018.28;;;9.30;38.67
54592;BME280;40488;48.558;18.150;2023-03-18T07:55:43;100024.28;;;9.38;38.68
54592;BME280;40488;48.558;18.150;2023-03-18T07:58:13;100025.19;;;9.43;38.18
54592;BME280;40488;48.558;18.150;2023-03-18T08:00:42;100021.78;;;9.41;38.43
54592;BME280;40488;48.558;18.150;2023-03-18T08:03:11;100025.16;;;9.37;38.46
54592;BME280;40488;48.558;18.150;2023-03-18T08:05:39;100027.81;;;9.50;38.37
54592;BME280;40488;48.558;18.150;2023-03-18T08:08:08;100026.28;;;9.67;37.32
54592;BME280;40488;48.558;18.150;2023-03-18T08:10:37;100026.31;;;9.73;37.39
54592;BME280;40488;48.558;18.150;2023-03-18T08:13:05;100022.91;;;9.69;37.52
54592;BME280;40488;48.558;18.150;2023-03-18T08:15:35;100025.56;;;9.89;36.94
54592;BME280;40488;48.558;18.150;2023-03-18T08:18:03;100021.41;;;9.97;36.67
54592;BME280;40488;48.558;18.150;2023-03-18T08:20:35;100018.88;;;10.03;37.36
54592;BME280;40488;48.558;18.150;2023-03-18T08:23:04;100021.44;;;10.00;36.39
54592;BME280;40488;48.558;18.150;2023-03-18T08:25:32;100020.59;;;10.05;36.72
54592;BME280;40488;48.558;18.150;2023-03-18T08:28:01;100009.66;;;10.16;36.39
54592;BME280;40488;48.558;18.150;2023-03-18T08:30:34;100017.41;;;10.32;36.66
54592;BME280;40488;48.558;18.150;2023-03-18T08:33:05;100014.03;;;10.39;36.33
54592;BME280;40488;48.558;18.150;2023-03-18T08:35:34;100014.94;;;10.46;36.13
54592;BME280;40488;48.558;18.150;2023-03-18T08:38:03;100009.75;;;10.37;35.47
54592;BME280;40488;48.558;18.150;2023-03-18T08:40:32;100013.97;;;10.27;35.48
54592;BME280;40488;48.558;18.150;2023-03-18T08:43:02;100009.81;;;10.44;35.70
54592;BME280;40488;48.558;18.150;2023-03-18T08:45:30;100014.19;;;10.66;36.26
54592;BME280;40488;48.558;18.150;2023-03-18T08:48:00;100017.59;;;10.77;36.50
54592;BME280;40488;48.558;18.150;2023-03-18T08:50:29;100028.66;;;10.67;36.13
54592;BME280;40488;48.558;18.150;2023-03-18T08:52:58;100020.97;;;10.64;35.49
54592;BME280;40488;48.558;18.150;2023-03-18T08:55:27;100004.00;;;10.75;35.62
54592;BME280;40488;48.558;18.150;2023-03-18T08:57:58;100010.84;;;10.81;35.11
54592;BME280;40488;48.558;18.150;2023-03-18T09:00:26;100014.22;;;10.85;35.31
54592;BME280;40488;48.558;18.150;2023-03-18T09:02:55;100010.88;;;10.95;35.08
54592;BME280;40488;48.558;18.150;2023-03-18T09:05:25;100013.41;;;10.86;34.49
54592;BME280;40488;48.558;18.150;2023-03-18T09:07:53;100007.47;;;10.93;34.35
54592;BME280;40488;48.558;18.150;2023-03-18T09:10:22;100004.06;;;10.94;33.95
54592;BME280;40488;48.558;18.150;2023-03-18T09:12:50;99997.25;;;11.02;34.45
54592;BME280;40488;48.558;18.150;2023-03-18T09:15:19;100004.13;;;11.15;34.70
54592;BME280;40488;48.558;18.150;2023-03-18T09:17:48;100002.44;;;11.33;34.53
54592;BME280;40488;48.558;18.150;2023-03-18T09:20:35;99996.50;;;11.51;34.09
54592;BME280;40488;48.558;18.150;2023-03-18T09:23:05;99996.50;;;11.60;33.73
54592;BME280;40488;48.558;18.150;2023-03-18T09:25:34;100004.19;;;11.63;33.51
54592;BME280;40488;48.558;18.150;2023-03-18T09:28:02;99996.50;;;11.57;34.19
54592;BME280;40488;48.558;18.150;2023-03-18T09:30:31;100000.75;;;11.64;34.71
54592;BME280;40488;48.558;18.150;2023-03-18T09:32:59;99993.97;;;11.75;34.38
54592;BME280;40488;48.558;18.150;2023-03-18T09:35:28;100000.78;;;11.79;34.63
54592;BME280;40488;48.558;18.150;2023-03-18T09:37:59;99995.66;;;11.94;34.33
54592;BME280;40488;48.558;18.150;2023-03-18T09:40:29;99995.66;;;11.88;34.40
54592;BME280;40488;48.558;18.150;2023-03-18T09:43:00;99994.81;;;11.98;34.81
54592;BME280;40488;48.558;18.150;2023-03-18T09:45:33;99993.06;;;12.05;34.89
54592;BME280;40488;48.558;18.150;2023-03-18T09:50:45;99982.00;;;11.98;34.09
54592;BME280;40488;48.558;18.150;2023-03-18T09:53:19;99982.84;;;12.08;33.77
54592;BME280;40488;48.558;18.150;2023-03-18T09:55:49;99981.13;;;12.10;33.78
54592;BME280;40488;48.558;18.150;2023-03-18T09:58:23;99985.41;;;12.16;33.77
54592;BME280;40488;48.558;18.150;2023-03-18T10:00:56;99983.72;;;12.08;34.06
54592;BME280;40488;48.558;18.150;2023-03-18T10:03:28;99988.78;;;12.18;33.81
54592;BME280;40488;48.558;18.150;2023-03-18T10:06:00;99980.31;;;12.03;33.64
54592;BME280;40488;48.558;18.150;2023-03-18T10:08:37;99968.31;;;12.18;33.54
54592;BME280;40488;48.558;18.150;2023-03-18T10:11:11;99958.09;;;12.21;33.01
54592;BME280;40488;48.558;18.150;2023-03-18T10:13:43;99958.09;;;12.21;32.49
54592;BME280;40488;48.558;18.150;2023-03-18T10:16:15;99964.00;;;12.29;32.31
54592;BME280;40488;48.558;18.150;2023-03-18T10:18:47;99959.72;;;12.40;31.99
54592;BME280;40488;48.558;18.150;2023-03-18T10:21:18;99955.38;;;12.61;32.01
54592;BME280;40488;48.558;18.150;2023-03-18T10:23:56;99956.13;;;12.77;31.83
54592;BME280;40488;48.558;18.150;2023-03-18T10:26:29;99953.56;;;12.83;31.90
54592;BME280;40488;48.558;18.150;2023-03-18T10:29:01;99949.28;;;12.79;31.66
54592;BME280;40488;48.558;18.150;2023-03-18T10:31:35;99952.69;;;12.84;31.13
54592;BME280;40488;48.558;18.150;2023-03-18T10:34:07;99950.19;;;12.73;30.53
54592;BME280;40488;48.558;18.150;2023-03-18T10:36:42;99947.63;;;12.72;31.19
54592;BME280;40488;48.558;18.150;2023-03-18T10:39:17;99945.09;;;12.70;31.35
54592;BME280;40488;48.558;18.150;2023-03-18T10:41:47;99935.66;;;12.77;31.74
54592;BME280;40488;48.558;18.150;2023-03-18T10:44:18;99947.59;;;12.81;30.43
54592;BME280;40488;48.558;18.150;2023-03-18T10:46:49;99944.22;;;12.70;29.68
54592;BME280;40488;48.558;18.150;2023-03-18T10:49:22;99933.84;;;12.94;29.60
54592;BME280;40488;48.558;18.150;2023-03-18T10:51:53;99935.38;;;13.22;29.21
54592;BME280;40488;48.558;18.150;2023-03-18T10:54:23;99935.25;;;13.43;28.96
54592;BME280;40488;48.558;18.150;2023-03-18T10:56:54;99929.22;;;13.48;28.65
54592;BME280;40488;48.558;18.150;2023-03-18T10:59:23;99922.41;;;13.43;28.54
54592;BME280;40488;48.558;18.150;2023-03-18T11:01:53;99919.78;;;13.50;28.27
54592;BME280;40488;48.558;18.150;2023-03-18T11:04:25;99919.66;;;13.65;28.88
54592;BME280;40488;48.558;18.150;2023-03-18T11:06:57;99922.91;;;13.82;28.44
54592;BME280;40488;48.558;18.150;2023-03-18T11:09:31;99909.28;;;13.77;27.74
54592;BME280;40488;48.558;18.150;2023-03-18T11:12:02;99915.25;;;13.77;27.39
54592;BME280;40488;48.558;18.150;2023-03-18T11:14:32;99905.13;;;13.65;25.26
54592;BME280;40488;48.558;18.150;2023-03-18T11:17:01;99910.41;;;13.44;23.34
54592;BME280;40488;48.558;18.150;2023-03-18T11:19:30;99911.56;;;13.08;22.97
54592;BME280;40488;48.558;18.150;2023-03-18T11:22:00;99904.75;;;12.98;23.40
54592;BME280;40488;48.558;18.150;2023-03-18T11:24:31;99902.84;;;13.30;23.70
54592;BME280;40488;48.558;18.150;2023-03-18T11:29:49;99888.78;;;13.74;23.26
54592;BME280;40488;48.558;18.150;2023-03-18T11:32:24;99895.41;;;13.96;23.36
54592;BME280;40488;48.558;18.150;2023-03-18T11:34:55;99879.88;;;14.05;23.48
54592;BME280;40488;48.558;18.150;2023-03-18T11:37:31;99891.91;;;14.00;24.01
54592;BME280;40488;48.558;18.150;2023-03-18T11:42:41;99881.69;;;13.97;24.14
54592;BME280;40488;48.558;18.150;2023-03-18T11:45:19;99884.84;;;14.19;24.68
54592;BME280;40488;48.558;18.150;2023-03-18T11:47:51;99883.06;;;14.25;25.36
54592;BME280;40488;48.558;18.150;2023-03-18T11:50:20;99876.50;;;14.03;24.49
54592;BME280;40488;48.558;18.150;2023-03-18T11:52:53;99881.63;;;14.03;25.09
54592;BME280;40488;48.558;18.150;2023-03-18T11:55:26;99881.56;;;14.07;26.45
54592;BME280;40488;48.558;18.150;2023-03-18T11:58:09;99886.00;;;13.93;26.51
54592;BME280;40488;48.558;18.150;2023-03-18T12:00:43;99880.03;;;13.90;26.91
54592;BME280;40488;48.558;18.150;2023-03-18T12:06:04;99871.28;;;14.09;27.24
54592;BME280;40488;48.558;18.150;2023-03-18T12:08:46;99864.25;;;14.23;28.42
54592;BME280;40488;48.558;18.150;2023-03-18T12:11:18;99870.94;;;14.38;28.92
54592;BME280;40488;48.558;18.150;2023-03-18T12:13:55;99873.69;;;14.23;28.72
54592;BME280;40488;48.558;18.150;2023-03-18T12:16:30;99864.22;;;14.26;28.75
54592;BME280;40488;48.558;18.150;2023-03-18T12:19:20;99864.09;;;14.38;28.71
54592;BME280;40488;48.558;18.150;2023-03-18T12:21:55;99861.69;;;14.25;28.92
54592;BME280;40488;48.558;18.150;2023-03-18T12:24:35;99850.38;;;14.41;28.37
54592;BME280;40488;48.558;18.150;2023-03-18T12:27:11;99857.09;;;14.49;27.68
54592;BME280;40488;48.558;18.150;2023-03-18T12:29:55;99858.63;;;14.62;27.51
54592;BME280;40488;48.558;18.150;2023-03-18T12:32:28;99854.50;;;14.49;28.42
54592;BME280;40488;48.558;18.150;2023-03-18T12:35:01;99848.56;;;14.47;28.62
54592;BME280;40488;48.558;18.150;2023-03-18T12:37:37;99850.22;;;14.50;28.52
54592;BME280;40488;48.558;18.150;2023-03-18T12:40:20;99840.81;;;14.50;28.73
54592;BME280;40488;48.558;18.150;2023-03-18T12:42:58;99853.69;;;14.47;27.83
54592;BME280;40488;48.558;18.150;2023-03-18T12:45:31;99849.50;;;14.40;28.69
54592;BME280;40488;48.558;18.150;2023-03-18T12:48:02;99853.84;;;14.37;28.80
54592;BME280;40488;48.558;18.150;2023-03-18T12:50:34;99845.19;;;14.42;28.95
54592;BME280;40488;48.558;18.150;2023-03-18T12:53:06;99850.13;;;14.57;28.57
54592;BME280;40488;48.558;18.150;2023-03-18T12:55:36;99846.53;;;14.70;28.76
54592;BME280;40488;48.558;18.150;2023-03-18T12:58:09;99840.56;;;14.67;29.00
54592;BME280;40488;48.558;18.150;2023-03-18T13:00:43;99845.66;;;14.68;29.08
54592;BME280;40488;48.558;18.150;2023-03-18T13:03:19;99842.34;;;14.63;29.35
54592;BME280;40488;48.558;18.150;2023-03-18T13:05:51;99834.47;;;14.75;29.54
54592;BME280;40488;48.558;18.150;2023-03-18T13:08:27;99837.84;;;14.77;29.09
54592;BME280;40488;48.558;18.150;2023-03-18T13:11:03;99825.97;;;14.70;28.90
54592;BME280;40488;48.558;18.150;2023-03-18T13:13:32;99830.31;;;14.65;29.76
54592;BME280;40488;48.558;18.150;2023-03-18T13:16:05;99824.22;;;14.72;30.19
54592;BME280;40488;48.558;18.150;2023-03-18T13:18:37;99812.88;;;14.87;29.38
54592;BME280;40488;48.558;18.150;2023-03-18T13:21:11;99811.97;;;14.90;29.62
54592;BME280;40488;48.558;18.150;2023-03-18T13:23:54;99811.88;;;14.94;29.43
54592;BME280;40488;48.558;18.150;2023-03-18T13:26:29;99809.19;;;15.00;29.62